sensor_id;sensor_type;location;lat;lon;timestamp;P1;durP1;ratioP1;P2;durP2;ratioP2
36829;SDS011;22767;47.328;9.640;2023-04-19T00:00:29;7.30;;;5.68;;
36829;SDS011;22767;47.328;9.640;2023-04-19T00:02:55;5.63;;;5.03;;
36829;SDS011;22767;47.328;9.640;2023-04-19T00:05:21;6.35;;;5.22;;
36829;SDS011;22767;47.328;9.640;2023-04-19T00:07:49;7.00;;;5.50;;
36829;SDS011;22767;47.328;9.640;2023-04-19T00:10:15;5.80;;;5.20;;
36829;SDS011;22767;47.328;9.640;2023-04-19T00:12:41;6.75;;;5.57;;
36829;SDS011;22767;47.328;9.640;2023-04-19T00:15:07;6.95;;;5.80;;
36829;SDS011;22767;47.328;9.640;2023-04-19T00:17:33;5.97;;;5.07;;
36829;SDS011;22767;47.328;9.640;2023-04-19T00:20:00;5.78;;;4.88;;
36829;SDS011;22767;47.328;9.640;2023-04-19T00:22:26;6.80;;;5.50;;
36829;SDS011;22767;47.328;9.640;2023-04-19T00:24:52;7.90;;;5.68;;
36829;SDS011;22767;47.328;9.640;2023-04-19T00:27:18;10.23;;;5.70;;
36829;SDS011;22767;47.328;9.640;2023-04-19T00:29:45;6.43;;;5.70;;
36829;SDS011;22767;47.328;9.640;2023-04-19T00:32:11;6.68;;;5.95;;
36829;SDS011;22767;47.328;9.640;2023-04-19T00:34:37;6.78;;;6.07;;
36829;SDS011;22767;47.328;9.640;2023-04-19T00:37:03;8.50;;;6.18;;
36829;SDS011;22767;47.328;9.640;2023-04-19T00:39:29;7.45;;;6.10;;
36829;SDS011;22767;47.328;9.640;2023-04-19T00:41:55;7.82;;;6.18;;
36829;SDS011;22767;47.328;9.640;2023-04-19T00:44:22;7.15;;;6.20;;
36829;SDS011;22767;47.328;9.640;2023-04-19T00:46:48;9.13;;;6.20;;
36829;SDS011;22767;47.328;9.640;2023-04-19T00:49:15;8.30;;;6.50;;
36829;SDS011;22767;47.328;9.640;2023-04-19T00:51:41;8.20;;;5.80;;
36829;SDS011;22767;47.328;9.640;2023-04-19T00:54:07;13.30;;;6.47;;
36829;SDS011;22767;47.328;9.640;2023-04-19T00:56:34;8.23;;;6.15;;
36829;SDS011;22767;47.328;9.640;2023-04-19T00:59:00;8.05;;;6.40;;
36829;SDS011;22767;47.328;9.640;2023-04-19T01:01:27;8.35;;;6.30;;
36829;SDS011;22767;47.328;9.640;2023-04-19T01:03:53;8.05;;;6.70;;
36829;SDS011;22767;47.328;9.640;2023-04-19T01:06:19;10.05;;;6.70;;
36829;SDS011;22767;47.328;9.640;2023-04-19T01:08:45;8.50;;;6.60;;
36829;SDS011;22767;47.328;9.640;2023-04-19T01:11:11;6.82;;;6.00;;
36829;SDS011;22767;47.328;9.640;2023-04-19T01:13:37;7.97;;;6.53;;
36829;SDS011;22767;47.328;9.640;2023-04-19T01:16:05;8.30;;;6.70;;
36829;SDS011;22767;47.328;9.640;2023-04-19T01:18:31;9.23;;;7.47;;
36829;SDS011;22767;47.328;9.640;2023-04-19T01:21:01;9.23;;;6.95;;
36829;SDS011;22767;47.328;9.640;2023-04-19T01:23:27;10.98;;;7.47;;
36829;SDS011;22767;47.328;9.640;2023-04-19T01:25:54;9.68;;;7.13;;
36829;SDS011;22767;47.328;9.640;2023-04-19T01:28:20;11.90;;;8.45;;
36829;SDS011;22767;47.328;9.640;2023-04-19T01:30:46;9.48;;;8.13;;
36829;SDS011;22767;47.328;9.640;2023-04-19T01:33:15;10.18;;;8.00;;
36829;SDS011;22767;47.328;9.640;2023-04-19T01:35:41;9.65;;;7.40;;
36829;SDS011;22767;47.328;9.640;2023-04-19T01:38:07;9.38;;;8.02;;
36829;SDS011;22767;47.328;9.640;2023-04-19T01:40:33;10.38;;;8.07;;
36829;SDS011;22767;47.328;9.640;2023-04-19T01:42:59;8.80;;;7.65;;
36829;SDS011;22767;47.328;9.640;2023-04-19T01:45:25;9.82;;;7.63;;
36829;SDS011;22767;47.328;9.640;2023-04-19T01:47:52;10.05;;;8.40;;
36829;SDS011;22767;47.328;9.640;2023-04-19T01:50:18;10.27;;;8.48;;
36829;SDS011;22767;47.328;9.640;2023-04-19T01:52:44;12.23;;;9.23;;
36829;SDS011;22767;47.328;9.640;2023-04-19T01:55:10;12.50;;;9.15;;
36829;SDS011;22767;47.328;9.640;2023-04-19T01:57:36;11.60;;;9.60;;
36829;SDS011;22767;47.328;9.640;2023-04-19T02:00:03;12.75;;;9.73;;
36829;SDS011;22767;47.328;9.640;2023-04-19T02:02:29;11.30;;;9.60;;
36829;SDS011;22767;47.328;9.640;2023-04-19T02:04:56;11.23;;;9.30;;
36829;SDS011;22767;47.328;9.640;2023-04-19T02:07:22;10.00;;;8.43;;
36829;SDS011;22767;47.328;9.640;2023-04-19T02:09:48;11.30;;;8.48;;
36829;SDS011;22767;47.328;9.640;2023-04-19T02:12:14;10.93;;;8.20;;
36829;SDS011;22767;47.328;9.640;2023-04-19T02:14:40;13.25;;;8.55;;
36829;SDS011;22767;47.328;9.640;2023-04-19T02:17:06;11.23;;;8.68;;
36829;SDS011;22767;47.328;9.640;2023-04-19T02:19:33;13.45;;;9.75;;
36829;SDS011;22767;47.328;9.640;2023-04-19T02:21:59;10.63;;;8.70;;
36829;SDS011;22767;47.328;9.640;2023-04-19T02:24:25;11.90;;;8.68;;
36829;SDS011;22767;47.328;9.640;2023-04-19T02:26:51;12.18;;;8.77;;
36829;SDS011;22767;47.328;9.640;2023-04-19T02:29:17;11.13;;;8.35;;
36829;SDS011;22767;47.328;9.640;2023-04-19T02:31:44;10.50;;;8.48;;
36829;SDS011;22767;47.328;9.640;2023-04-19T02:34:10;9.60;;;7.95;;
36829;SDS011;22767;47.328;9.640;2023-04-19T02:36:36;13.30;;;8.63;;
36829;SDS011;22767;47.328;9.640;2023-04-19T02:39:03;10.90;;;8.93;;
36829;SDS011;22767;47.328;9.640;2023-04-19T02:41:29;10.02;;;8.00;;
36829;SDS011;22767;47.328;9.640;2023-04-19T02:43:56;11.65;;;8.30;;
36829;SDS011;22767;47.328;9.640;2023-04-19T02:46:22;9.55;;;8.10;;
36829;SDS011;22767;47.328;9.640;2023-04-19T02:48:48;9.75;;;7.80;;
36829;SDS011;22767;47.328;9.640;2023-04-19T02:51:15;11.10;;;8.88;;
36829;SDS011;22767;47.328;9.640;2023-04-19T02:53:41;9.80;;;8.60;;
36829;SDS011;22767;47.328;9.640;2023-04-19T02:56:07;10.35;;;8.63;;
36829;SDS011;22767;47.328;9.640;2023-04-19T02:58:34;9.70;;;8.40;;
36829;SDS011;22767;47.328;9.640;2023-04-19T03:01:00;9.57;;;7.72;;
36829;SDS011;22767;47.328;9.640;2023-04-19T03:03:26;8.77;;;7.63;;
36829;SDS011;22767;47.328;9.640;2023-04-19T03:05:52;10.57;;;8.13;;
36829;SDS011;22767;47.328;9.640;2023-04-19T03:08:19;11.45;;;8.45;;
36829;SDS011;22767;47.328;9.640;2023-04-19T03:10:45;10.23;;;8.40;;
36829;SDS011;22767;47.328;9.640;2023-04-19T03:13:11;10.82;;;8.50;;
36829;SDS011;22767;47.328;9.640;2023-04-19T03:15:37;12.15;;;9.70;;
36829;SDS011;22767;47.328;9.640;2023-04-19T03:18:03;11.20;;;8.82;;
36829;SDS011;22767;47.328;9.640;2023-04-19T03:20:30;10.95;;;8.50;;
36829;SDS011;22767;47.328;9.640;2023-04-19T03:22:56;11.50;;;8.80;;
36829;SDS011;22767;47.328;9.640;2023-04-19T03:25:22;11.38;;;9.82;;
36829;SDS011;22767;47.328;9.640;2023-04-19T03:27:48;11.80;;;9.45;;
36829;SDS011;22767;47.328;9.640;2023-04-19T03:30:16;10.07;;;8.80;;
36829;SDS011;22767;47.328;9.640;2023-04-19T03:32:42;11.43;;;9.40;;
36829;SDS011;22767;47.328;9.640;2023-04-19T03:35:08;11.77;;;9.68;;
36829;SDS011;22767;47.328;9.640;2023-04-19T03:37:34;12.77;;;9.20;;
36829;SDS011;22767;47.328;9.640;2023-04-19T03:40:01;11.13;;;9.57;;
36829;SDS011;22767;47.328;9.640;2023-04-19T03:42:27;12.27;;;9.73;;
36829;SDS011;22767;47.328;9.640;2023-04-19T03:44:53;11.48;;;9.38;;
36829;SDS011;22767;47.328;9.640;2023-04-19T03:47:19;11.07;;;9.25;;
36829;SDS011;22767;47.328;9.640;2023-04-19T03:49:45;11.15;;;9.15;;
36829;SDS011;22767;47.328;9.640;2023-04-19T03:52:11;11.65;;;9.23;;
36829;SDS011;22767;47.328;9.640;2023-04-19T03:54:37;11.23;;;9.38;;
36829;SDS011;22767;47.328;9.640;2023-04-19T03:57:04;15.48;;;10.07;;
36829;SDS011;22767;47.328;9.640;2023-04-19T03:59:30;12.57;;;9.65;;
36829;SDS011;22767;47.328;9.640;2023-04-19T04:01:56;11.82;;;9.73;;
36829;SDS011;22767;47.328;9.640;2023-04-19T04:04:22;12.77;;;9.98;;
36829;SDS011;22767;47.328;9.640;2023-04-19T04:06:48;12.15;;;9.80;;
36829;SDS011;22767;47.328;9.640;2023-04-19T04:09:15;12.30;;;9.50;;
36829;SDS011;22767;47.328;9.640;2023-04-19T04:11:41;11.90;;;9.73;;
36829;SDS011;22767;47.328;9.640;2023-04-19T04:14:07;11.73;;;9.65;;
36829;SDS011;22767;47.328;9.640;2023-04-19T04:16:33;14.52;;;11.52;;
36829;SDS011;22767;47.328;9.640;2023-04-19T04:18:59;15.90;;;12.00;;
36829;SDS011;22767;47.328;9.640;2023-04-19T04:21:25;15.43;;;11.75;;
36829;SDS011;22767;47.328;9.640;2023-04-19T04:23:52;17.70;;;13.27;;
36829;SDS011;22767;47.328;9.640;2023-04-19T04:26:18;17.52;;;13.48;;
36829;SDS011;22767;47.328;9.640;2023-04-19T04:28:45;16.77;;;13.15;;
36829;SDS011;22767;47.328;9.640;2023-04-19T04:31:12;18.40;;;13.00;;
36829;SDS011;22767;47.328;9.640;2023-04-19T04:33:38;15.63;;;11.93;;
36829;SDS011;22767;47.328;9.640;2023-04-19T04:36:05;15.57;;;11.82;;
36829;SDS011;22767;47.328;9.640;2023-04-19T04:38:32;17.48;;;12.15;;
36829;SDS011;22767;47.328;9.640;2023-04-19T04:40:58;15.52;;;11.68;;
36829;SDS011;22767;47.328;9.640;2023-04-19T04:43:24;14.20;;;10.88;;
36829;SDS011;22767;47.328;9.640;2023-04-19T04:45:53;15.13;;;11.38;;
36829;SDS011;22767;47.328;9.640;2023-04-19T04:48:20;14.85;;;11.30;;
36829;SDS011;22767;47.328;9.640;2023-04-19T04:50:47;12.43;;;10.68;;
36829;SDS011;22767;47.328;9.640;2023-04-19T04:53:13;13.38;;;10.48;;
36829;SDS011;22767;47.328;9.640;2023-04-19T04:55:39;13.68;;;11.02;;
36829;SDS011;22767;47.328;9.640;2023-04-19T04:58:05;14.55;;;11.27;;
36829;SDS011;22767;47.328;9.640;2023-04-19T05:00:32;13.95;;;11.65;;
36829;SDS011;22767;47.328;9.640;2023-04-19T05:02:58;16.55;;;12.02;;
36829;SDS011;22767;47.328;9.640;2023-04-19T05:05:24;14.43;;;11.52;;
36829;SDS011;22767;47.328;9.640;2023-04-19T05:07:51;15.57;;;11.95;;
36829;SDS011;22767;47.328;9.640;2023-04-19T05:10:17;15.45;;;11.52;;
36829;SDS011;22767;47.328;9.640;2023-04-19T05:12:43;14.55;;;11.80;;
36829;SDS011;22767;47.328;9.640;2023-04-19T05:15:09;14.60;;;11.43;;
36829;SDS011;22767;47.328;9.640;2023-04-19T05:17:36;13.45;;;11.20;;
36829;SDS011;22767;47.328;9.640;2023-04-19T05:20:02;14.98;;;11.27;;
36829;SDS011;22767;47.328;9.640;2023-04-19T05:22:29;13.32;;;10.73;;
36829;SDS011;22767;47.328;9.640;2023-04-19T05:24:56;16.98;;;11.70;;
36829;SDS011;22767;47.328;9.640;2023-04-19T05:27:22;14.60;;;11.23;;
36829;SDS011;22767;47.328;9.640;2023-04-19T05:29:48;13.20;;;11.40;;
36829;SDS011;22767;47.328;9.640;2023-04-19T05:32:17;14.20;;;11.02;;
36829;SDS011;22767;47.328;9.640;2023-04-19T05:34:44;15.38;;;11.48;;
36829;SDS011;22767;47.328;9.640;2023-04-19T05:37:10;16.83;;;11.50;;
36829;SDS011;22767;47.328;9.640;2023-04-19T05:39:37;13.52;;;10.95;;
36829;SDS011;22767;47.328;9.640;2023-04-19T05:42:03;15.13;;;11.50;;
36829;SDS011;22767;47.328;9.640;2023-04-19T05:44:29;14.25;;;11.32;;
36829;SDS011;22767;47.328;9.640;2023-04-19T05:46:55;15.25;;;12.23;;
36829;SDS011;22767;47.328;9.640;2023-04-19T05:49:21;14.45;;;10.88;;
36829;SDS011;22767;47.328;9.640;2023-04-19T05:51:47;14.40;;;11.38;;
36829;SDS011;22767;47.328;9.640;2023-04-19T05:54:14;17.73;;;11.77;;
36829;SDS011;22767;47.328;9.640;2023-04-19T05:56:41;14.60;;;11.02;;
36829;SDS011;22767;47.328;9.640;2023-04-19T05:59:07;14.20;;;10.30;;
36829;SDS011;22767;47.328;9.640;2023-04-19T06:01:35;14.93;;;11.38;;
36829;SDS011;22767;47.328;9.640;2023-04-19T06:04:01;13.35;;;10.88;;
36829;SDS011;22767;47.328;9.640;2023-04-19T06:06:27;16.10;;;11.48;;
36829;SDS011;22767;47.328;9.640;2023-04-19T06:08:54;13.98;;;11.40;;
36829;SDS011;22767;47.328;9.640;2023-04-19T06:11:20;16.05;;;11.63;;
36829;SDS011;22767;47.328;9.640;2023-04-19T06:13:47;19.20;;;12.25;;
36829;SDS011;22767;47.328;9.640;2023-04-19T06:16:14;16.02;;;11.43;;
36829;SDS011;22767;47.328;9.640;2023-04-19T06:18:41;14.57;;;10.70;;
36829;SDS011;22767;47.328;9.640;2023-04-19T06:21:07;14.25;;;11.35;;
36829;SDS011;22767;47.328;9.640;2023-04-19T06:23:33;15.07;;;11.10;;
36829;SDS011;22767;47.328;9.640;2023-04-19T06:25:59;11.95;;;9.90;;
36829;SDS011;22767;47.328;9.640;2023-04-19T06:28:26;14.05;;;11.05;;
36829;SDS011;22767;47.328;9.640;2023-04-19T06:30:52;14.00;;;11.25;;
36829;SDS011;22767;47.328;9.640;2023-04-19T06:33:18;13.25;;;10.75;;
36829;SDS011;22767;47.328;9.640;2023-04-19T06:35:44;16.38;;;10.93;;
36829;SDS011;22767;47.328;9.640;2023-04-19T06:38:10;15.20;;;11.63;;
36829;SDS011;22767;47.328;9.640;2023-04-19T06:40:36;14.60;;;11.23;;
36829;SDS011;22767;47.328;9.640;2023-04-19T06:43:02;14.38;;;10.75;;
36829;SDS011;22767;47.328;9.640;2023-04-19T06:45:28;15.90;;;11.25;;
36829;SDS011;22767;47.328;9.640;2023-04-19T06:47:57;12.68;;;10.18;;
36829;SDS011;22767;47.328;9.640;2023-04-19T06:50:23;15.65;;;11.07;;
36829;SDS011;22767;47.328;9.640;2023-04-19T06:52:49;12.45;;;10.20;;
36829;SDS011;22767;47.328;9.640;2023-04-19T06:55:15;17.00;;;10.70;;
36829;SDS011;22767;47.328;9.640;2023-04-19T06:57:41;14.73;;;10.30;;
36829;SDS011;22767;47.328;9.640;2023-04-19T07:00:08;12.80;;;10.60;;
36829;SDS011;22767;47.328;9.640;2023-04-19T07:02:35;14.82;;;10.35;;
36829;SDS011;22767;47.328;9.640;2023-04-19T07:05:01;14.70;;;10.27;;
36829;SDS011;22767;47.328;9.640;2023-04-19T07:07:27;13.43;;;10.40;;
36829;SDS011;22767;47.328;9.640;2023-04-19T07:09:54;12.73;;;9.68;;
36829;SDS011;22767;47.328;9.640;2023-04-19T07:12:20;11.63;;;9.48;;
36829;SDS011;22767;47.328;9.640;2023-04-19T07:14:46;13.63;;;10.60;;
36829;SDS011;22767;47.328;9.640;2023-04-19T07:17:12;15.85;;;10.48;;
36829;SDS011;22767;47.328;9.640;2023-04-19T07:19:38;17.23;;;10.20;;
36829;SDS011;22767;47.328;9.640;2023-04-19T07:22:04;14.95;;;9.20;;
36829;SDS011;22767;47.328;9.640;2023-04-19T07:24:31;14.10;;;11.00;;
36829;SDS011;22767;47.328;9.640;2023-04-19T07:26:57;17.90;;;11.88;;
36829;SDS011;22767;47.328;9.640;2023-04-19T07:29:23;13.70;;;10.88;;
36829;SDS011;22767;47.328;9.640;2023-04-19T07:31:49;13.60;;;10.60;;
36829;SDS011;22767;47.328;9.640;2023-04-19T07:34:16;15.43;;;10.25;;
36829;SDS011;22767;47.328;9.640;2023-04-19T07:36:42;17.25;;;11.27;;
36829;SDS011;22767;47.328;9.640;2023-04-19T07:39:08;14.43;;;10.80;;
36829;SDS011;22767;47.328;9.640;2023-04-19T07:41:35;15.52;;;11.23;;
36829;SDS011;22767;47.328;9.640;2023-04-19T07:44:01;15.93;;;10.82;;
36829;SDS011;22767;47.328;9.640;2023-04-19T07:46:27;14.75;;;10.32;;
36829;SDS011;22767;47.328;9.640;2023-04-19T07:48:53;18.17;;;11.23;;
36829;SDS011;22767;47.328;9.640;2023-04-19T07:51:19;18.27;;;11.85;;
36829;SDS011;22767;47.328;9.640;2023-04-19T07:53:47;13.90;;;10.45;;
36829;SDS011;22767;47.328;9.640;2023-04-19T07:56:14;13.70;;;10.35;;
36829;SDS011;22767;47.328;9.640;2023-04-19T07:58:40;26.75;;;13.85;;
36829;SDS011;22767;47.328;9.640;2023-04-19T08:01:06;19.55;;;11.45;;
36829;SDS011;22767;47.328;9.640;2023-04-19T08:03:33;17.55;;;10.75;;
36829;SDS011;22767;47.328;9.640;2023-04-19T08:06:00;16.50;;;11.07;;
36829;SDS011;22767;47.328;9.640;2023-04-19T08:08:26;16.58;;;11.05;;
36829;SDS011;22767;47.328;9.640;2023-04-19T08:10:53;16.60;;;11.82;;
36829;SDS011;22767;47.328;9.640;2023-04-19T08:13:19;15.55;;;11.27;;
36829;SDS011;22767;47.328;9.640;2023-04-19T08:15:46;13.45;;;10.45;;
36829;SDS011;22767;47.328;9.640;2023-04-19T08:18:12;15.77;;;11.18;;
36829;SDS011;22767;47.328;9.640;2023-04-19T08:20:38;14.27;;;10.95;;
36829;SDS011;22767;47.328;9.640;2023-04-19T08:23:06;17.23;;;12.15;;
36829;SDS011;22767;47.328;9.640;2023-04-19T08:25:33;13.75;;;11.32;;
36829;SDS011;22767;47.328;9.640;2023-04-19T08:27:59;14.07;;;10.45;;
36829;SDS011;22767;47.328;9.640;2023-04-19T08:30:46;14.23;;;11.23;;
36829;SDS011;22767;47.328;9.640;2023-04-19T08:33:33;14.30;;;11.70;;
36829;SDS011;22767;47.328;9.640;2023-04-19T08:36:19;12.85;;;10.35;;
36829;SDS011;22767;47.328;9.640;2023-04-19T08:39:06;14.43;;;10.60;;
36829;SDS011;22767;47.328;9.640;2023-04-19T08:41:56;17.08;;;10.57;;
36829;SDS011;22767;47.328;9.640;2023-04-19T08:44:46;15.38;;;10.57;;
36829;SDS011;22767;47.328;9.640;2023-04-19T08:47:40;13.05;;;10.43;;
36829;SDS011;22767;47.328;9.640;2023-04-19T08:50:27;15.07;;;10.50;;
36829;SDS011;22767;47.328;9.640;2023-04-19T08:53:19;14.05;;;10.73;;
36829;SDS011;22767;47.328;9.640;2023-04-19T08:56:07;13.73;;;10.73;;
36829;SDS011;22767;47.328;9.640;2023-04-19T08:58:53;12.38;;;10.38;;
36829;SDS011;22767;47.328;9.640;2023-04-19T09:01:40;12.77;;;9.98;;
36829;SDS011;22767;47.328;9.640;2023-04-19T09:04:27;16.52;;;11.18;;
36829;SDS011;22767;47.328;9.640;2023-04-19T09:07:21;13.02;;;10.40;;
36829;SDS011;22767;47.328;9.640;2023-04-19T09:13:01;11.80;;;10.25;;
36829;SDS011;22767;47.328;9.640;2023-04-19T09:15:48;15.95;;;10.45;;
36829;SDS011;22767;47.328;9.640;2023-04-19T09:18:51;13.77;;;10.48;;
36829;SDS011;22767;47.328;9.640;2023-04-19T09:21:38;16.13;;;10.88;;
36829;SDS011;22767;47.328;9.640;2023-04-19T09:24:37;12.52;;;10.07;;
36829;SDS011;22767;47.328;9.640;2023-04-19T09:27:31;14.98;;;9.88;;
36829;SDS011;22767;47.328;9.640;2023-04-19T09:30:24;12.35;;;10.43;;
36829;SDS011;22767;47.328;9.640;2023-04-19T09:33:10;13.73;;;10.45;;
36829;SDS011;22767;47.328;9.640;2023-04-19T09:35:57;13.25;;;9.98;;
36829;SDS011;22767;47.328;9.640;2023-04-19T09:38:50;11.48;;;9.43;;
36829;SDS011;22767;47.328;9.640;2023-04-19T09:44:23;10.68;;;8.93;;
36829;SDS011;22767;47.328;9.640;2023-04-19T09:47:30;11.23;;;8.77;;
36829;SDS011;22767;47.328;9.640;2023-04-19T09:50:18;13.05;;;9.00;;
36829;SDS011;22767;47.328;9.640;2023-04-19T09:53:04;10.80;;;9.15;;
36829;SDS011;22767;47.328;9.640;2023-04-19T09:55:51;11.32;;;9.00;;
36829;SDS011;22767;47.328;9.640;2023-04-19T09:58:38;11.55;;;8.95;;
36829;SDS011;22767;47.328;9.640;2023-04-19T10:01:24;10.18;;;8.55;;
36829;SDS011;22767;47.328;9.640;2023-04-19T10:04:13;12.85;;;9.88;;
36829;SDS011;22767;47.328;9.640;2023-04-19T10:07:06;13.85;;;10.45;;
36829;SDS011;22767;47.328;9.640;2023-04-19T10:10:00;12.57;;;8.63;;
36829;SDS011;22767;47.328;9.640;2023-04-19T10:12:48;11.65;;;9.13;;
36829;SDS011;22767;47.328;9.640;2023-04-19T10:15:36;14.45;;;8.80;;
36829;SDS011;22767;47.328;9.640;2023-04-19T10:18:22;13.00;;;9.65;;
36829;SDS011;22767;47.328;9.640;2023-04-19T10:21:16;10.60;;;8.95;;
36829;SDS011;22767;47.328;9.640;2023-04-19T10:24:04;10.70;;;9.10;;
36829;SDS011;22767;47.328;9.640;2023-04-19T10:32:56;11.43;;;9.55;;
36829;SDS011;22767;47.328;9.640;2023-04-19T10:35:43;11.10;;;9.20;;
36829;SDS011;22767;47.328;9.640;2023-04-19T10:38:48;13.13;;;9.77;;
36829;SDS011;22767;47.328;9.640;2023-04-19T10:41:55;13.25;;;10.07;;
36829;SDS011;22767;47.328;9.640;2023-04-19T10:47:47;11.52;;;9.68;;
36829;SDS011;22767;47.328;9.640;2023-04-19T10:53:42;14.88;;;10.40;;
36829;SDS011;22767;47.328;9.640;2023-04-19T10:59:18;13.77;;;10.15;;
36829;SDS011;22767;47.328;9.640;2023-04-19T11:05:07;11.80;;;9.35;;
36829;SDS011;22767;47.328;9.640;2023-04-19T11:07:54;13.25;;;10.38;;
36829;SDS011;22767;47.328;9.640;2023-04-19T11:10:48;12.30;;;9.60;;
36829;SDS011;22767;47.328;9.640;2023-04-19T11:13:35;12.15;;;8.95;;
36829;SDS011;22767;47.328;9.640;2023-04-19T11:16:21;8.70;;;7.55;;
36829;SDS011;22767;47.328;9.640;2023-04-19T11:19:08;11.45;;;8.48;;
36829;SDS011;22767;47.328;9.640;2023-04-19T11:21:57;10.88;;;8.77;;
36829;SDS011;22767;47.328;9.640;2023-04-19T11:24:51;12.35;;;9.18;;
36829;SDS011;22767;47.328;9.640;2023-04-19T11:27:45;15.48;;;9.35;;
36829;SDS011;22767;47.328;9.640;2023-04-19T11:30:31;11.55;;;8.43;;
36829;SDS011;22767;47.328;9.640;2023-04-19T11:33:20;10.77;;;8.38;;
36829;SDS011;22767;47.328;9.640;2023-04-19T11:36:16;10.55;;;8.82;;
36829;SDS011;22767;47.328;9.640;2023-04-19T11:39:05;11.00;;;9.07;;
36829;SDS011;22767;47.328;9.640;2023-04-19T11:41:52;9.88;;;8.60;;
36829;SDS011;22767;47.328;9.640;2023-04-19T11:44:38;9.40;;;7.68;;
36829;SDS011;22767;47.328;9.640;2023-04-19T11:47:25;10.40;;;7.72;;
36829;SDS011;22767;47.328;9.640;2023-04-19T11:50:33;9.63;;;8.20;;
36829;SDS011;22767;47.328;9.640;2023-04-19T11:53:22;8.63;;;7.60;;
36829;SDS011;22767;47.328;9.640;2023-04-19T11:56:09;9.10;;;6.55;;
36829;SDS011;22767;47.328;9.640;2023-04-19T11:58:56;9.30;;;7.68;;
36829;SDS011;22767;47.328;9.640;2023-04-19T12:01:42;7.90;;;6.65;;
36829;SDS011;22767;47.328;9.640;2023-04-19T12:04:29;7.85;;;6.88;;
36829;SDS011;22767;47.328;9.640;2023-04-19T12:07:15;7.53;;;6.72;;
36829;SDS011;22767;47.328;9.640;2023-04-19T12:10:09;7.30;;;6.55;;
36829;SDS011;22767;47.328;9.640;2023-04-19T12:12:56;9.13;;;7.20;;
36829;SDS011;22767;47.328;9.640;2023-04-19T12:15:43;9.90;;;6.72;;
36829;SDS011;22767;47.328;9.640;2023-04-19T12:18:43;8.40;;;6.70;;
36829;SDS011;22767;47.328;9.640;2023-04-19T12:21:37;6.95;;;6.25;;
36829;SDS011;22767;47.328;9.640;2023-04-19T12:24:23;6.88;;;6.07;;
36829;SDS011;22767;47.328;9.640;2023-04-19T12:27:17;7.07;;;6.35;;
36829;SDS011;22767;47.328;9.640;2023-04-19T12:30:03;7.75;;;6.10;;
36829;SDS011;22767;47.328;9.640;2023-04-19T12:32:50;7.50;;;6.53;;
36829;SDS011;22767;47.328;9.640;2023-04-19T12:35:39;7.32;;;6.00;;
36829;SDS011;22767;47.328;9.640;2023-04-19T12:38:27;8.13;;;6.18;;
36829;SDS011;22767;47.328;9.640;2023-04-19T12:41:13;7.95;;;7.05;;
36829;SDS011;22767;47.328;9.640;2023-04-19T12:44:00;7.28;;;6.57;;
36829;SDS011;22767;47.328;9.640;2023-04-19T12:46:46;8.75;;;7.05;;
36829;SDS011;22767;47.328;9.640;2023-04-19T12:49:39;8.82;;;7.50;;
36829;SDS011;22767;47.328;9.640;2023-04-19T12:52:25;9.82;;;7.60;;
36829;SDS011;22767;47.328;9.640;2023-04-19T12:55:12;9.77;;;7.53;;
36829;SDS011;22767;47.328;9.640;2023-04-19T12:57:58;9.25;;;7.60;;
36829;SDS011;22767;47.328;9.640;2023-04-19T13:00:44;9.45;;;8.38;;
36829;SDS011;22767;47.328;9.640;2023-04-19T13:03:31;9.57;;;7.75;;
36829;SDS011;22767;47.328;9.640;2023-04-19T13:06:20;8.90;;;7.85;;
36829;SDS011;22767;47.328;9.640;2023-04-19T13:09:14;10.35;;;8.13;;
36829;SDS011;22767;47.328;9.640;2023-04-19T13:12:00;9.43;;;7.72;;
36829;SDS011;22767;47.328;9.640;2023-04-19T13:14:47;9.45;;;7.97;;
36829;SDS011;22767;47.328;9.640;2023-04-19T13:17:35;10.30;;;7.97;;
36829;SDS011;22767;47.328;9.640;2023-04-19T13:20:22;12.60;;;9.32;;
36829;SDS011;22767;47.328;9.640;2023-04-19T13:23:09;12.55;;;8.48;;
36829;SDS011;22767;47.328;9.640;2023-04-19T13:25:55;12.85;;;8.60;;
36829;SDS011;22767;47.328;9.640;2023-04-19T13:28:49;10.25;;;9.23;;
36829;SDS011;22767;47.328;9.640;2023-04-19T13:31:35;11.88;;;9.75;;
36829;SDS011;22767;47.328;9.640;2023-04-19T13:34:21;13.05;;;8.95;;
36829;SDS011;22767;47.328;9.640;2023-04-19T13:37:08;11.48;;;9.40;;
36829;SDS011;22767;47.328;9.640;2023-04-19T13:39:54;11.80;;;9.38;;
36829;SDS011;22767;47.328;9.640;2023-04-19T13:42:41;12.82;;;9.15;;
36829;SDS011;22767;47.328;9.640;2023-04-19T13:45:27;10.85;;;8.90;;
36829;SDS011;22767;47.328;9.640;2023-04-19T13:48:13;12.90;;;9.38;;
36829;SDS011;22767;47.328;9.640;2023-04-19T13:51:00;11.77;;;9.18;;
36829;SDS011;22767;47.328;9.640;2023-04-19T13:53:46;11.77;;;9.38;;
36829;SDS011;22767;47.328;9.640;2023-04-19T13:56:33;13.98;;;10.02;;
36829;SDS011;22767;47.328;9.640;2023-04-19T13:59:19;11.90;;;10.43;;
36829;SDS011;22767;47.328;9.640;2023-04-19T14:02:13;11.10;;;9.45;;
36829;SDS011;22767;47.328;9.640;2023-04-19T14:04:59;14.65;;;9.32;;
36829;SDS011;22767;47.328;9.640;2023-04-19T14:07:45;11.13;;;8.82;;
36829;SDS011;22767;47.328;9.640;2023-04-19T14:10:32;9.88;;;8.27;;
36829;SDS011;22767;47.328;9.640;2023-04-19T14:13:19;11.73;;;8.93;;
36829;SDS011;22767;47.328;9.640;2023-04-19T14:16:06;9.43;;;8.18;;
36829;SDS011;22767;47.328;9.640;2023-04-19T14:18:52;12.85;;;9.13;;
36829;SDS011;22767;47.328;9.640;2023-04-19T14:21:39;11.68;;;8.82;;
36829;SDS011;22767;47.328;9.640;2023-04-19T14:24:25;10.45;;;8.75;;
36829;SDS011;22767;47.328;9.640;2023-04-19T14:27:11;12.48;;;8.57;;
36829;SDS011;22767;47.328;9.640;2023-04-19T14:29:58;10.68;;;8.57;;
36829;SDS011;22767;47.328;9.640;2023-04-19T14:32:52;10.25;;;8.48;;
36829;SDS011;22767;47.328;9.640;2023-04-19T14:35:39;13.38;;;9.65;;
36829;SDS011;22767;47.328;9.640;2023-04-19T14:38:26;10.80;;;9.07;;
36829;SDS011;22767;47.328;9.640;2023-04-19T14:41:12;13.30;;;9.85;;
36829;SDS011;22767;47.328;9.640;2023-04-19T14:43:59;13.95;;;10.18;;
36829;SDS011;22767;47.328;9.640;2023-04-19T14:46:52;13.88;;;10.35;;
36829;SDS011;22767;47.328;9.640;2023-04-19T14:49:39;17.52;;;10.35;;
36829;SDS011;22767;47.328;9.640;2023-04-19T14:52:26;13.95;;;10.98;;
36829;SDS011;22767;47.328;9.640;2023-04-19T14:55:14;12.00;;;9.40;;
36829;SDS011;22767;47.328;9.640;2023-04-19T14:58:01;14.48;;;10.45;;
36829;SDS011;22767;47.328;9.640;2023-04-19T15:00:47;13.05;;;10.35;;
36829;SDS011;22767;47.328;9.640;2023-04-19T15:03:33;13.70;;;9.90;;
36829;SDS011;22767;47.328;9.640;2023-04-19T15:06:20;12.77;;;10.85;;
36829;SDS011;22767;47.328;9.640;2023-04-19T15:09:06;11.60;;;9.45;;
36829;SDS011;22767;47.328;9.640;2023-04-19T15:11:53;12.50;;;10.65;;
36829;SDS011;22767;47.328;9.640;2023-04-19T15:14:39;13.10;;;10.05;;
36829;SDS011;22767;47.328;9.640;2023-04-19T15:17:32;14.25;;;10.40;;
36829;SDS011;22767;47.328;9.640;2023-04-19T15:20:19;13.50;;;10.50;;
36829;SDS011;22767;47.328;9.640;2023-04-19T15:23:06;10.95;;;9.73;;
36829;SDS011;22767;47.328;9.640;2023-04-19T15:25:53;12.02;;;10.38;;
36829;SDS011;22767;47.328;9.640;2023-04-19T15:28:40;13.77;;;10.40;;
36829;SDS011;22767;47.328;9.640;2023-04-19T15:31:26;14.23;;;11.02;;
36829;SDS011;22767;47.328;9.640;2023-04-19T15:34:12;16.70;;;10.93;;
36829;SDS011;22767;47.328;9.640;2023-04-19T15:36:59;13.13;;;10.93;;
36829;SDS011;22767;47.328;9.640;2023-04-19T15:39:46;13.23;;;10.25;;
36829;SDS011;22767;47.328;9.640;2023-04-19T15:42:34;13.73;;;11.63;;